sensor_id;sensor_type;location;lat;lon;timestamp;P1;durP1;ratioP1;P2;durP2;ratioP2
62419;SDS011;48460;51.616;5.426;2022-10-17T00:02:17;13.85;;;8.18;;
62419;SDS011;48460;51.616;5.426;2022-10-17T00:04:45;13.57;;;8.35;;
62419;SDS011;48460;51.616;5.426;2022-10-17T00:07:13;12.15;;;8.35;;
62419;SDS011;48460;51.616;5.426;2022-10-17T00:09:41;17.25;;;8.48;;
62419;SDS011;48460;51.616;5.426;2022-10-17T00:15:29;14.40;;;8.40;;
62419;SDS011;48460;51.616;5.426;2022-10-17T00:17:55;12.10;;;7.97;;
62419;SDS011;48460;51.616;5.426;2022-10-17T00:20:21;12.73;;;7.82;;
62419;SDS011;48460;51.616;5.426;2022-10-17T00:22:46;14.40;;;8.75;;
62419;SDS011;48460;51.616;5.426;2022-10-17T00:25:14;12.43;;;8.60;;
62419;SDS011;48460;51.616;5.426;2022-10-17T00:27:46;16.17;;;8.73;;
62419;SDS011;48460;51.616;5.426;2022-10-17T00:30:12;13.30;;;8.40;;
62419;SDS011;48460;51.616;5.426;2022-10-17T00:32:39;13.60;;;8.32;;
62419;SDS011;48460;51.616;5.426;2022-10-17T00:35:07;12.55;;;8.70;;
62419;SDS011;48460;51.616;5.426;2022-10-17T00:37:35;18.15;;;8.77;;
62419;SDS011;48460;51.616;5.426;2022-10-17T00:40:02;12.60;;;8.65;;
62419;SDS011;48460;51.616;5.426;2022-10-17T00:42:31;12.13;;;8.55;;
62419;SDS011;48460;51.616;5.426;2022-10-17T00:45:06;12.07;;;8.63;;
62419;SDS011;48460;51.616;5.426;2022-10-17T00:47:52;12.90;;;8.48;;
62419;SDS011;48460;51.616;5.426;2022-10-17T00:50:45;18.45;;;8.73;;
62419;SDS011;48460;51.616;5.426;2022-10-17T00:53:14;11.63;;;8.70;;
62419;SDS011;48460;51.616;5.426;2022-10-17T00:55:47;13.05;;;8.73;;
62419;SDS011;48460;51.616;5.426;2022-10-17T00:58:14;14.30;;;8.60;;
62419;SDS011;48460;51.616;5.426;2022-10-17T01:00:43;13.10;;;8.90;;
62419;SDS011;48460;51.616;5.426;2022-10-17T01:03:11;12.70;;;8.82;;
62419;SDS011;48460;51.616;5.426;2022-10-17T01:05:39;13.38;;;8.55;;
62419;SDS011;48460;51.616;5.426;2022-10-17T01:08:06;12.43;;;8.63;;
62419;SDS011;48460;51.616;5.426;2022-10-17T01:22:17;15.35;;;8.95;;
62419;SDS011;48460;51.616;5.426;2022-10-17T01:30:21;16.63;;;9.40;;
62419;SDS011;48460;51.616;5.426;2022-10-17T01:35:50;30.60;;;11.18;;
62419;SDS011;48460;51.616;5.426;2022-10-17T01:38:29;16.50;;;10.07;;
62419;SDS011;48460;51.616;5.426;2022-10-17T01:41:01;14.98;;;11.25;;
62419;SDS011;48460;51.616;5.426;2022-10-17T01:43:39;16.50;;;10.57;;
62419;SDS011;48460;51.616;5.426;2022-10-17T01:49:50;15.02;;;10.60;;
62419;SDS011;48460;51.616;5.426;2022-10-17T01:55:38;14.55;;;10.20;;
62419;SDS011;48460;51.616;5.426;2022-10-17T01:58:09;18.63;;;11.30;;
62419;SDS011;48460;51.616;5.426;2022-10-17T02:01:15;18.83;;;11.40;;
62419;SDS011;48460;51.616;5.426;2022-10-17T02:03:44;23.25;;;12.20;;
62419;SDS011;48460;51.616;5.426;2022-10-17T02:06:20;18.13;;;11.88;;
62419;SDS011;48460;51.616;5.426;2022-10-17T02:08:56;18.52;;;11.27;;
62419;SDS011;48460;51.616;5.426;2022-10-17T02:11:22;18.60;;;11.73;;
62419;SDS011;48460;51.616;5.426;2022-10-17T02:34:51;20.77;;;11.35;;
62419;SDS011;48460;51.616;5.426;2022-10-17T02:37:22;22.60;;;11.40;;
62419;SDS011;48460;51.616;5.426;2022-10-17T02:39:51;20.55;;;11.82;;
62419;SDS011;48460;51.616;5.426;2022-10-17T02:42:20;24.85;;;11.60;;
62419;SDS011;48460;51.616;5.426;2022-10-17T02:44:51;17.17;;;11.82;;
62419;SDS011;48460;51.616;5.426;2022-10-17T02:47:24;16.73;;;12.43;;
62419;SDS011;48460;51.616;5.426;2022-10-17T02:59:50;18.73;;;12.05;;
62419;SDS011;48460;51.616;5.426;2022-10-17T03:05:21;17.48;;;11.57;;
62419;SDS011;48460;51.616;5.426;2022-10-17T03:08:31;20.17;;;11.15;;
62419;SDS011;48460;51.616;5.426;2022-10-17T03:10:59;17.17;;;10.98;;
62419;SDS011;48460;51.616;5.426;2022-10-17T03:13:25;19.45;;;11.07;;
62419;SDS011;48460;51.616;5.426;2022-10-17T03:15:51;21.27;;;11.75;;
62419;SDS011;48460;51.616;5.426;2022-10-17T03:18:30;19.45;;;11.38;;
62419;SDS011;48460;51.616;5.426;2022-10-17T03:21:08;16.15;;;10.73;;
62419;SDS011;48460;51.616;5.426;2022-10-17T03:23:34;19.92;;;11.55;;
62419;SDS011;48460;51.616;5.426;2022-10-17T03:26:05;16.33;;;11.45;;
62419;SDS011;48460;51.616;5.426;2022-10-17T03:28:31;22.05;;;12.43;;
62419;SDS011;48460;51.616;5.426;2022-10-17T03:33:44;20.10;;;10.65;;
62419;SDS011;48460;51.616;5.426;2022-10-17T03:36:15;18.08;;;11.07;;
62419;SDS011;48460;51.616;5.426;2022-10-17T03:42:08;18.80;;;10.48;;
62419;SDS011;48460;51.616;5.426;2022-10-17T03:44:40;18.25;;;10.70;;
62419;SDS011;48460;51.616;5.426;2022-10-17T03:47:05;15.98;;;10.60;;
62419;SDS011;48460;51.616;5.426;2022-10-17T03:49:33;18.55;;;10.68;;
62419;SDS011;48460;51.616;5.426;2022-10-17T03:52:01;18.08;;;10.77;;
62419;SDS011;48460;51.616;5.426;2022-10-17T03:54:28;25.60;;;10.90;;
62419;SDS011;48460;51.616;5.426;2022-10-17T03:56:56;21.00;;;10.80;;
62419;SDS011;48460;51.616;5.426;2022-10-17T03:59:23;13.38;;;9.60;;
62419;SDS011;48460;51.616;5.426;2022-10-17T04:01:53;16.63;;;10.40;;
62419;SDS011;48460;51.616;5.426;2022-10-17T04:04:19;18.27;;;10.52;;
62419;SDS011;48460;51.616;5.426;2022-10-17T04:06:44;18.63;;;11.10;;
62419;SDS011;48460;51.616;5.426;2022-10-17T04:09:12;16.77;;;10.68;;
62419;SDS011;48460;51.616;5.426;2022-10-17T04:11:45;14.88;;;10.07;;
62419;SDS011;48460;51.616;5.426;2022-10-17T04:14:11;15.20;;;10.10;;
62419;SDS011;48460;51.616;5.426;2022-10-17T04:16:39;19.02;;;9.95;;
62419;SDS011;48460;51.616;5.426;2022-10-17T04:19:04;18.55;;;10.32;;
62419;SDS011;48460;51.616;5.426;2022-10-17T04:21:30;17.23;;;10.77;;
62419;SDS011;48460;51.616;5.426;2022-10-17T04:23:56;16.58;;;9.63;;
62419;SDS011;48460;51.616;5.426;2022-10-17T04:26:23;16.60;;;9.70;;
62419;SDS011;48460;51.616;5.426;2022-10-17T04:28:57;13.73;;;9.60;;
62419;SDS011;48460;51.616;5.426;2022-10-17T04:31:23;15.52;;;9.75;;
62419;SDS011;48460;51.616;5.426;2022-10-17T04:33:52;17.70;;;9.85;;
62419;SDS011;48460;51.616;5.426;2022-10-17T04:36:19;15.75;;;9.25;;
62419;SDS011;48460;51.616;5.426;2022-10-17T04:38:49;17.85;;;8.82;;
62419;SDS011;48460;51.616;5.426;2022-10-17T04:41:16;15.30;;;9.50;;
62419;SDS011;48460;51.616;5.426;2022-10-17T04:43:43;15.98;;;9.10;;
62419;SDS011;48460;51.616;5.426;2022-10-17T04:46:10;17.27;;;9.32;;
62419;SDS011;48460;51.616;5.426;2022-10-17T04:48:41;14.60;;;9.05;;
62419;SDS011;48460;51.616;5.426;2022-10-17T04:51:14;17.85;;;9.00;;
62419;SDS011;48460;51.616;5.426;2022-10-17T04:53:42;16.95;;;8.77;;
62419;SDS011;48460;51.616;5.426;2022-10-17T04:56:13;16.92;;;9.45;;
62419;SDS011;48460;51.616;5.426;2022-10-17T04:58:45;15.38;;;8.02;;
62419;SDS011;48460;51.616;5.426;2022-10-17T05:01:16;18.52;;;8.93;;
62419;SDS011;48460;51.616;5.426;2022-10-17T05:03:43;15.93;;;8.82;;
62419;SDS011;48460;51.616;5.426;2022-10-17T05:06:20;13.52;;;8.70;;
62419;SDS011;48460;51.616;5.426;2022-10-17T05:08:57;14.95;;;8.93;;
62419;SDS011;48460;51.616;5.426;2022-10-17T05:11:28;16.75;;;8.38;;
62419;SDS011;48460;51.616;5.426;2022-10-17T05:14:02;16.60;;;9.07;;
62419;SDS011;48460;51.616;5.426;2022-10-17T05:16:28;15.50;;;8.23;;
62419;SDS011;48460;51.616;5.426;2022-10-17T05:18:54;13.43;;;8.13;;
62419;SDS011;48460;51.616;5.426;2022-10-17T05:21:22;17.42;;;8.60;;
62419;SDS011;48460;51.616;5.426;2022-10-17T05:23:50;16.50;;;8.63;;
62419;SDS011;48460;51.616;5.426;2022-10-17T05:26:19;14.23;;;8.55;;
62419;SDS011;48460;51.616;5.426;2022-10-17T05:28:48;15.35;;;8.82;;
62419;SDS011;48460;51.616;5.426;2022-10-17T05:31:16;16.05;;;8.43;;
62419;SDS011;48460;51.616;5.426;2022-10-17T05:33:44;17.27;;;9.07;;
62419;SDS011;48460;51.616;5.426;2022-10-17T05:36:10;15.77;;;9.55;;
62419;SDS011;48460;51.616;5.426;2022-10-17T05:38:36;13.48;;;8.75;;
62419;SDS011;48460;51.616;5.426;2022-10-17T05:41:04;16.63;;;8.82;;
62419;SDS011;48460;51.616;5.426;2022-10-17T05:43:43;18.25;;;8.50;;
62419;SDS011;48460;51.616;5.426;2022-10-17T05:46:09;19.48;;;8.23;;
62419;SDS011;48460;51.616;5.426;2022-10-17T05:48:40;15.73;;;8.32;;
62419;SDS011;48460;51.616;5.426;2022-10-17T05:51:13;14.27;;;8.07;;
62419;SDS011;48460;51.616;5.426;2022-10-17T05:53:52;14.57;;;8.90;;
62419;SDS011;48460;51.616;5.426;2022-10-17T05:56:17;14.45;;;8.02;;
62419;SDS011;48460;51.616;5.426;2022-10-17T05:58:50;17.45;;;8.77;;
62419;SDS011;48460;51.616;5.426;2022-10-17T06:04:11;16.52;;;8.63;;
62419;SDS011;48460;51.616;5.426;2022-10-17T06:07:20;12.32;;;7.95;;
62419;SDS011;48460;51.616;5.426;2022-10-17T06:12:44;15.38;;;7.80;;
62419;SDS011;48460;51.616;5.426;2022-10-17T06:15:12;14.35;;;7.95;;
62419;SDS011;48460;51.616;5.426;2022-10-17T06:18:16;11.48;;;7.80;;
62419;SDS011;48460;51.616;5.426;2022-10-17T06:20:54;12.68;;;7.53;;
62419;SDS011;48460;51.616;5.426;2022-10-17T06:24:10;15.10;;;7.70;;
62419;SDS011;48460;51.616;5.426;2022-10-17T06:29:57;11.82;;;7.57;;
62419;SDS011;48460;51.616;5.426;2022-10-17T07:56:27;17.15;;;7.95;;
62419;SDS011;48460;51.616;5.426;2022-10-17T07:58:56;29.45;;;9.35;;
62419;SDS011;48460;51.616;5.426;2022-10-17T08:01:26;18.83;;;8.85;;
62419;SDS011;48460;51.616;5.426;2022-10-17T08:04:12;23.73;;;9.27;;
62419;SDS011;48460;51.616;5.426;2022-10-17T08:06:42;22.65;;;9.02;;
62419;SDS011;48460;51.616;5.426;2022-10-17T08:09:12;17.83;;;9.60;;
62419;SDS011;48460;51.616;5.426;2022-10-17T08:11:55;25.25;;;10.00;;
62419;SDS011;48460;51.616;5.426;2022-10-17T08:17:58;17.90;;;9.43;;
62419;SDS011;48460;51.616;5.426;2022-10-17T08:23:43;17.17;;;11.13;;
62419;SDS011;48460;51.616;5.426;2022-10-17T08:29:25;20.83;;;10.63;;
62419;SDS011;48460;51.616;5.426;2022-10-17T08:31:51;19.15;;;10.13;;
62419;SDS011;48460;51.616;5.426;2022-10-17T08:34:41;21.65;;;11.07;;
62419;SDS011;48460;51.616;5.426;2022-10-17T08:37:28;32.03;;;12.55;;
62419;SDS011;48460;51.616;5.426;2022-10-17T08:40:21;21.95;;;10.90;;
62419;SDS011;48460;51.616;5.426;2022-10-17T08:43:44;18.58;;;10.48;;
62419;SDS011;48460;51.616;5.426;2022-10-17T08:47:11;15.30;;;9.73;;
62419;SDS011;48460;51.616;5.426;2022-10-17T09:00:13;22.65;;;10.65;;
62419;SDS011;48460;51.616;5.426;2022-10-17T09:27:21;24.02;;;11.00;;
62419;SDS011;48460;51.616;5.426;2022-10-17T10:49:37;20.90;;;12.13;;
62419;SDS011;48460;51.616;5.426;2022-10-17T12:51:17;26.75;;;14.43;;
62419;SDS011;48460;51.616;5.426;2022-10-17T12:53:56;21.17;;;14.25;;
62419;SDS011;48460;51.616;5.426;2022-10-17T12:56:52;24.50;;;14.27;;
62419;SDS011;48460;51.616;5.426;2022-10-17T12:59:48;21.48;;;14.07;;
62419;SDS011;48460;51.616;5.426;2022-10-17T15:19:27;24.77;;;14.98;;
62419;SDS011;48460;51.616;5.426;2022-10-17T15:33:28;24.48;;;15.43;;
62419;SDS011;48460;51.616;5.426;2022-10-17T15:41:52;23.45;;;15.18;;
62419;SDS011;48460;51.616;5.426;2022-10-17T15:46:56;22.73;;;14.93;;
62419;SDS011;48460;51.616;5.426;2022-10-17T15:49:25;26.02;;;15.45;;
62419;SDS011;48460;51.616;5.426;2022-10-17T15:57:15;28.42;;;14.63;;
62419;SDS011;48460;51.616;5.426;2022-10-17T16:00:16;24.92;;;14.80;;
62419;SDS011;48460;51.616;5.426;2022-10-17T16:02:58;28.08;;;14.38;;
62419;SDS011;48460;51.616;5.426;2022-10-17T16:09:55;26.45;;;14.73;;
62419;SDS011;48460;51.616;5.426;2022-10-17T16:15:14;23.50;;;14.70;;
62419;SDS011;48460;51.616;5.426;2022-10-17T17:12:08;28.90;;;17.42;;
62419;SDS011;48460;51.616;5.426;2022-10-17T17:14:45;27.15;;;17.90;;
62419;SDS011;48460;51.616;5.426;2022-10-17T17:17:10;25.25;;;17.30;;
62419;SDS011;48460;51.616;5.426;2022-10-17T17:19:45;30.75;;;18.77;;
62419;SDS011;48460;51.616;5.426;2022-10-17T17:22:15;33.20;;;18.35;;
62419;SDS011;48460;51.616;5.426;2022-10-17T17:24:56;26.90;;;18.23;;
62419;SDS011;48460;51.616;5.426;2022-10-17T17:27:59;31.30;;;17.88;;
62419;SDS011;48460;51.616;5.426;2022-10-17T17:30:51;28.52;;;17.65;;
62419;SDS011;48460;51.616;5.426;2022-10-17T17:33:48;26.48;;;16.83;;
62419;SDS011;48460;51.616;5.426;2022-10-17T17:36:27;30.55;;;18.10;;
62419;SDS011;48460;51.616;5.426;2022-10-17T17:41:48;30.92;;;18.02;;
62419;SDS011;48460;51.616;5.426;2022-10-17T17:44:58;31.15;;;17.85;;
62419;SDS011;48460;51.616;5.426;2022-10-17T17:47:34;28.27;;;17.65;;
62419;SDS011;48460;51.616;5.426;2022-10-17T17:50:11;31.67;;;18.25;;
62419;SDS011;48460;51.616;5.426;2022-10-17T17:52:41;35.15;;;18.08;;
62419;SDS011;48460;51.616;5.426;2022-10-17T17:55:22;33.25;;;18.10;;
62419;SDS011;48460;51.616;5.426;2022-10-17T17:58:45;26.67;;;17.52;;
62419;SDS011;48460;51.616;5.426;2022-10-17T18:01:20;33.08;;;18.02;;
62419;SDS011;48460;51.616;5.426;2022-10-17T18:03:58;29.33;;;18.30;;
62419;SDS011;48460;51.616;5.426;2022-10-17T18:06:37;35.97;;;17.60;;
62419;SDS011;48460;51.616;5.426;2022-10-17T18:09:27;28.45;;;17.85;;
62419;SDS011;48460;51.616;5.426;2022-10-17T18:12:30;31.45;;;17.67;;
62419;SDS011;48460;51.616;5.426;2022-10-17T18:15:24;32.22;;;18.50;;
62419;SDS011;48460;51.616;5.426;2022-10-17T18:18:20;33.95;;;18.90;;
62419;SDS011;48460;51.616;5.426;2022-10-17T18:21:08;29.38;;;18.50;;
62419;SDS011;48460;51.616;5.426;2022-10-17T18:24:06;29.17;;;17.20;;
62419;SDS011;48460;51.616;5.426;2022-10-17T18:27:15;32.08;;;18.45;;
62419;SDS011;48460;51.616;5.426;2022-10-17T18:29:44;31.88;;;18.77;;
62419;SDS011;48460;51.616;5.426;2022-10-17T18:32:18;33.08;;;18.70;;
62419;SDS011;48460;51.616;5.426;2022-10-17T18:34:57;39.28;;;18.42;;
62419;SDS011;48460;51.616;5.426;2022-10-17T18:37:35;34.25;;;19.15;;
62419;SDS011;48460;51.616;5.426;2022-10-17T18:40:15;35.40;;;19.45;;
62419;SDS011;48460;51.616;5.426;2022-10-17T18:45:15;34.17;;;19.00;;
62419;SDS011;48460;51.616;5.426;2022-10-17T18:47:47;34.17;;;18.58;;
62419;SDS011;48460;51.616;5.426;2022-10-17T18:50:16;37.58;;;19.75;;
62419;SDS011;48460;51.616;5.426;2022-10-17T18:52:56;33.72;;;20.05;;
62419;SDS011;48460;51.616;5.426;2022-10-17T18:55:25;36.10;;;20.55;;
62419;SDS011;48460;51.616;5.426;2022-10-17T18:57:52;33.10;;;19.73;;
62419;SDS011;48460;51.616;5.426;2022-10-17T19:00:26;40.08;;;19.75;;
62419;SDS011;48460;51.616;5.426;2022-10-17T19:02:56;38.67;;;19.15;;
62419;SDS011;48460;51.616;5.426;2022-10-17T19:05:22;33.83;;;18.48;;
62419;SDS011;48460;51.616;5.426;2022-10-17T19:07:56;36.15;;;19.80;;
62419;SDS011;48460;51.616;5.426;2022-10-17T19:10:41;34.85;;;19.63;;
62419;SDS011;48460;51.616;5.426;2022-10-17T19:13:08;36.10;;;19.23;;
62419;SDS011;48460;51.616;5.426;2022-10-17T19:15:38;33.57;;;19.90;;
62419;SDS011;48460;51.616;5.426;2022-10-17T19:19:04;35.92;;;18.27;;
62419;SDS011;48460;51.616;5.426;2022-10-17T19:21:47;33.20;;;18.40;;
62419;SDS011;48460;51.616;5.426;2022-10-17T19:24:24;36.08;;;18.02;;
62419;SDS011;48460;51.616;5.426;2022-10-17T19:27:16;31.30;;;17.90;;
62419;SDS011;48460;51.616;5.426;2022-10-17T19:29:47;31.63;;;19.13;;
62419;SDS011;48460;51.616;5.426;2022-10-17T19:32:24;33.55;;;18.50;;
62419;SDS011;48460;51.616;5.426;2022-10-17T19:38:05;32.15;;;18.67;;
62419;SDS011;48460;51.616;5.426;2022-10-17T19:41:05;39.17;;;18.92;;
62419;SDS011;48460;51.616;5.426;2022-10-17T19:43:39;40.75;;;21.65;;
62419;SDS011;48460;51.616;5.426;2022-10-17T19:46:30;39.25;;;22.05;;
62419;SDS011;48460;51.616;5.426;2022-10-17T19:49:11;48.85;;;23.75;;
62419;SDS011;48460;51.616;5.426;2022-10-17T19:51:43;49.80;;;25.52;;
62419;SDS011;48460;51.616;5.426;2022-10-17T19:54:18;49.70;;;25.60;;
62419;SDS011;48460;51.616;5.426;2022-10-17T19:56:45;45.25;;;25.42;;
62419;SDS011;48460;51.616;5.426;2022-10-17T19:59:15;57.17;;;26.55;;
62419;SDS011;48460;51.616;5.426;2022-10-17T20:01:41;45.05;;;25.40;;
62419;SDS011;48460;51.616;5.426;2022-10-17T20:04:12;49.13;;;26.83;;
62419;SDS011;48460;51.616;5.426;2022-10-17T20:06:38;47.95;;;25.55;;
62419;SDS011;48460;51.616;5.426;2022-10-17T20:09:30;45.40;;;25.52;;
62419;SDS011;48460;51.616;5.426;2022-10-17T20:11:56;62.85;;;26.50;;
62419;SDS011;48460;51.616;5.426;2022-10-17T20:14:32;46.88;;;25.75;;
62419;SDS011;48460;51.616;5.426;2022-10-17T20:16:59;49.38;;;26.23;;
62419;SDS011;48460;51.616;5.426;2022-10-17T20:19:24;50.70;;;26.42;;
62419;SDS011;48460;51.616;5.426;2022-10-17T20:21:50;44.13;;;24.92;;
62419;SDS011;48460;51.616;5.426;2022-10-17T20:27:34;40.90;;;23.13;;
62419;SDS011;48460;51.616;5.426;2022-10-17T20:30:09;40.70;;;22.98;;
62419;SDS011;48460;51.616;5.426;2022-10-17T20:33:35;40.80;;;22.02;;
62419;SDS011;48460;51.616;5.426;2022-10-17T20:36:19;33.75;;;21.00;;
62419;SDS011;48460;51.616;5.426;2022-10-17T20:39:06;34.97;;;19.67;;
62419;SDS011;48460;51.616;5.426;2022-10-17T20:42:16;36.88;;;19.63;;
62419;SDS011;48460;51.616;5.426;2022-10-17T20:45:06;36.15;;;18.85;;
62419;SDS011;48460;51.616;5.426;2022-10-17T20:47:39;34.92;;;19.33;;
62419;SDS011;48460;51.616;5.426;2022-10-17T20:50:23;36.10;;;19.42;;
62419;SDS011;48460;51.616;5.426;2022-10-17T20:53:03;37.83;;;19.20;;
62419;SDS011;48460;51.616;5.426;2022-10-17T20:55:29;34.25;;;19.42;;
62419;SDS011;48460;51.616;5.426;2022-10-17T20:57:56;33.92;;;19.50;;
62419;SDS011;48460;51.616;5.426;2022-10-17T21:00:24;32.38;;;19.00;;
62419;SDS011;48460;51.616;5.426;2022-10-17T21:12:09;31.45;;;17.58;;
62419;SDS011;48460;51.616;5.426;2022-10-17T21:15:45;27.23;;;16.52;;
62419;SDS011;48460;51.616;5.426;2022-10-17T21:19:27;34.65;;;17.50;;
62419;SDS011;48460;51.616;5.426;2022-10-17T21:22:09;27.83;;;16.52;;
62419;SDS011;48460;51.616;5.426;2022-10-17T21:24:59;34.58;;;16.35;;
62419;SDS011;48460;51.616;5.426;2022-10-17T21:27:50;26.40;;;16.38;;
62419;SDS011;48460;51.616;5.426;2022-10-17T21:30:18;24.60;;;16.70;;
62419;SDS011;48460;51.616;5.426;2022-10-17T21:33:06;29.92;;;16.08;;
62419;SDS011;48460;51.616;5.426;2022-10-17T21:35:31;34.15;;;16.60;;
62419;SDS011;48460;51.616;5.426;2022-10-17T21:38:02;28.00;;;16.55;;
62419;SDS011;48460;51.616;5.426;2022-10-17T21:40:45;27.33;;;15.52;;
62419;SDS011;48460;51.616;5.426;2022-10-17T21:43:22;24.42;;;14.95;;
62419;SDS011;48460;51.616;5.426;2022-10-17T21:45:49;28.70;;;15.77;;
62419;SDS011;48460;51.616;5.426;2022-10-17T21:48:23;22.85;;;15.70;;
62419;SDS011;48460;51.616;5.426;2022-10-17T21:51:19;26.27;;;15.43;;
62419;SDS011;48460;51.616;5.426;2022-10-17T21:54:04;32.95;;;15.75;;
62419;SDS011;48460;51.616;5.426;2022-10-17T21:56:34;24.20;;;15.07;;
62419;SDS011;48460;51.616;5.426;2022-10-17T21:59:09;29.65;;;15.10;;
62419;SDS011;48460;51.616;5.426;2022-10-17T22:01:49;30.75;;;15.43;;
62419;SDS011;48460;51.616;5.426;2022-10-17T22:04:20;28.23;;;15.75;;
62419;SDS011;48460;51.616;5.426;2022-10-17T22:06:58;25.02;;;15.43;;
62419;SDS011;48460;51.616;5.426;2022-10-17T22:09:51;22.67;;;14.90;;
62419;SDS011;48460;51.616;5.426;2022-10-17T22:12:45;26.83;;;15.02;;
62419;SDS011;48460;51.616;5.426;2022-10-17T22:15:17;29.25;;;15.05;;
62419;SDS011;48460;51.616;5.426;2022-10-17T22:17:46;30.73;;;15.07;;
62419;SDS011;48460;51.616;5.426;2022-10-17T22:20:12;24.02;;;15.35;;
62419;SDS011;48460;51.616;5.426;2022-10-17T22:22:41;27.02;;;15.50;;
62419;SDS011;48460;51.616;5.426;2022-10-17T22:25:22;26.67;;;15.13;;
62419;SDS011;48460;51.616;5.426;2022-10-17T22:27:51;29.33;;;15.90;;
62419;SDS011;48460;51.616;5.426;2022-10-17T22:30:36;27.85;;;15.20;;
62419;SDS011;48460;51.616;5.426;2022-10-17T22:33:15;24.13;;;15.30;;
62419;SDS011;48460;51.616;5.426;2022-10-17T22:35:53;27.67;;;15.25;;
62419;SDS011;48460;51.616;5.426;2022-10-17T22:38:23;31.30;;;15.40;;
62419;SDS011;48460;51.616;5.426;2022-10-17T22:41:00;25.75;;;15.90;;
62419;SDS011;48460;51.616;5.426;2022-10-17T22:43:26;23.77;;;15.85;;
62419;SDS011;48460;51.616;5.426;2022-10-17T22:45:52;24.33;;;15.15;;
62419;SDS011;48460;51.616;5.426;2022-10-17T22:48:22;25.20;;;14.73;;
62419;SDS011;48460;51.616;5.426;2022-10-17T22:50:52;26.50;;;14.20;;
62419;SDS011;48460;51.616;5.426;2022-10-17T22:53:23;25.55;;;14.52;;
62419;SDS011;48460;51.616;5.426;2022-10-17T22:58:19;30.52;;;15.10;;
62419;SDS011;48460;51.616;5.426;2022-10-17T23:00:47;21.27;;;14.35;;
62419;SDS011;48460;51.616;5.426;2022-10-17T23:03:21;27.35;;;14.68;;
62419;SDS011;48460;51.616;5.426;2022-10-17T23:05:50;27.65;;;14.75;;
62419;SDS011;48460;51.616;5.426;2022-10-17T23:08:16;28.45;;;14.00;;
62419;SDS011;48460;51.616;5.426;2022-10-17T23:10:45;25.38;;;15.07;;
62419;SDS011;48460;51.616;5.426;2022-10-17T23:13:12;32.63;;;15.75;;
62419;SDS011;48460;51.616;5.426;2022-10-17T23:15:42;23.10;;;14.02;;
62419;SDS011;48460;51.616;5.426;2022-10-17T23:18:08;25.98;;;15.00;;
62419;SDS011;48460;51.616;5.426;2022-10-17T23:20:34;28.65;;;14.52;;
62419;SDS011;48460;51.616;5.426;2022-10-17T23:23:03;26.05;;;15.05;;
62419;SDS011;48460;51.616;5.426;2022-10-17T23:25:34;29.63;;;15.05;;
62419;SDS011;48460;51.616;5.426;2022-10-17T23:28:00;27.83;;;15.43;;
62419;SDS011;48460;51.616;5.426;2022-10-17T23:30:30;22.75;;;14.38;;
62419;SDS011;48460;51.616;5.426;2022-10-17T23:33:08;23.85;;;15.38;;
62419;SDS011;48460;51.616;5.426;2022-10-17T23:35:36;21.67;;;14.57;;
62419;SDS011;48460;51.616;5.426;2022-10-17T23:38:04;31.10;;;14.57;;
62419;SDS011;48460;51.616;5.426;2022-10-17T23:40:30;24.67;;;14.68;;
62419;SDS011;48460;51.616;5.426;2022-10-17T23:43:03;21.05;;;14.45;;
62419;SDS011;48460;51.616;5.426;2022-10-17T23:45:29;23.48;;;14.05;;
62419;SDS011;48460;51.616;5.426;2022-10-17T23:48:02;28.65;;;14.45;;
62419;SDS011;48460;51.616;5.426;2022-10-17T23:50:32;24.02;;;14.80;;
62419;SDS011;48460;51.616;5.426;2022-10-17T23:52:57;23.95;;;14.00;;
62419;SDS011;48460;51.616;5.426;2022-10-17T23:55:28;25.98;;;14.45;;
62419;SDS011;48460;51.616;5.426;2022-10-17T23:58:06;25.52;;;15.20;;
